Dayton, Ohio
Current Conditions -  °F | °C
As of 12:58 AM on Saturday 25 Oct 2014 (Local Time) from KFFO Reporting Station
Clear Clear  
Wind Chill: 46°   Ceiling: Unl
Heat Index: 46°   Visibility: 10mi
Dew Point: 41°   Wind: 2mph
Humidity: 85%   Direction: 130°SE
Pressure: 30.02"   Gusts: NA
Location:  39.76°N, 84.19°W
Report Text: KFFO 250458Z AUTO 13002KT 10SM CLR 08/05 A3002 RMK AO2 SLP169 T00750052 401820036
Loading
Personal Weather Stations






























Interactive Weather Map
Tropical Storm Tracking
New forecast layout! Learn more

10-Day Weather Forecast

Advertisements
Track Severe Weather on mobile